Time;durP1;ratioP1;P1;durP2;ratioP2;P2;SDS_P1;SDS_P2;PMS_P1;PMS_P2;Temp;Humidity;BMP_temperature;BMP_pressure;BME280_temperature;BME280_humidity;BME280_pressure;Samples;Min_cycle;Max_cycle;Signal;HPM_P1;HPM_P2
2023/01/16 00:02:23;;;;;;;5.07;0.85;;;;;;;4.15;71.49;98710.72;10212292;29;20036;-78
2023/01/16 00:07:27;;;;;;;2.83;0.73;;;;;;;3.84;70.86;98716.78;10207401;29;20135;-77
2023/01/16 00:12:30;;;;;;;4.57;1.08;;;;;;;4.06;70.08;98697.31;10205691;29;20083;-78
2023/01/16 00:17:33;;;;;;;6.25;0.57;;;;;;;4.28;70.25;98691.97;10196471;29;20095;-79
2023/01/16 00:22:37;;;;;;;3.70;0.98;;;;;;;4.29;71.43;98677.69;10208688;29;20047;-77
2023/01/16 00:27:40;;;;;;;4.93;0.70;;;;;;;4.14;71.84;98663.00;10220681;29;20161;-77
2023/01/16 00:32:43;;;;;;;4.15;0.88;;;;;;;4.14;72.10;98655.03;10226620;29;20044;-78
2023/01/16 00:37:47;;;;;;;1.45;0.60;;;;;;;4.14;72.44;98645.25;10213475;29;20055;-78
2023/01/16 00:42:50;;;;;;;6.47;1.10;;;;;;;4.12;72.53;98643.69;10213077;29;20050;-77
2023/01/16 00:47:53;;;;;;;3.88;0.82;;;;;;;4.09;72.30;98617.38;10209728;29;20525;-78
2023/01/16 00:52:57;;;;;;;2.70;0.47;;;;;;;4.04;72.13;98608.94;10204996;29;20040;-78
2023/01/16 00:58:00;;;;;;;2.25;0.68;;;;;;;4.12;71.42;98604.69;10207588;29;20078;-78
2023/01/16 01:03:03;;;;;;;2.38;0.60;;;;;;;4.05;71.77;98592.84;10209680;29;20058;-78
2023/01/16 01:08:08;;;;;;;3.05;0.65;;;;;;;4.10;71.54;98585.34;10203424;29;20050;-78
2023/01/16 01:13:11;;;;;;;3.67;0.47;;;;;;;4.23;71.07;98576.38;10207237;29;20065;-79
2023/01/16 01:18:14;;;;;;;2.22;0.68;;;;;;;4.32;70.75;98564.97;10201140;29;20574;-78
2023/01/16 01:23:18;;;;;;;2.90;1.23;;;;;;;4.28;70.54;98568.84;10209174;29;20091;-79
2023/01/16 01:28:21;;;;;;;2.85;1.10;;;;;;;4.06;70.70;98553.84;10204231;29;20040;-78
2023/01/16 01:33:24;;;;;;;1.90;0.73;;;;;;;4.30;70.40;98538.50;10219843;29;20567;-78
2023/01/16 01:38:28;;;;;;;1.00;0.40;;;;;;;4.14;69.93;98546.06;10208742;29;20929;-78
2023/01/16 01:43:43;;;;;;;7.35;0.95;;;;;;;4.00;70.68;98536.59;10208245;29;20436;-78
2023/01/16 01:48:49;;;;;;;2.00;0.73;;;;;;;4.08;70.44;98520.84;10204501;29;20052;-78
2023/01/16 01:53:56;;;;;;;3.47;0.52;;;;;;;4.00;70.58;98523.31;10206879;29;20066;-77
2023/01/16 01:59:03;;;;;;;3.53;0.70;;;;;;;3.92;70.93;98505.38;10205744;29;20055;-78
2023/01/16 02:04:10;;;;;;;1.77;0.75;;;;;;;3.83;71.34;98487.53;10206317;29;20031;-78
2023/01/16 02:09:16;;;;;;;2.72;0.77;;;;;;;4.00;71.39;98477.31;10201100;29;20590;-78
2023/01/16 02:14:19;;;;;;;2.35;0.77;;;;;;;3.79;72.19;98461.38;10202863;29;20040;-78
2023/01/16 02:19:32;;;;;;;4.00;0.73;;;;;;;3.99;71.31;98457.88;10212739;29;20047;-79
2023/01/16 02:25:04;;;;;;;2.85;0.80;;;;;;;3.96;71.30;98444.88;10205991;29;20088;-77
2023/01/16 02:30:37;;;;;;;3.97;0.50;;;;;;;3.64;72.51;98434.28;10207556;29;20574;-79
2023/01/16 02:35:56;;;;;;;3.35;0.68;;;;;;;3.43;72.69;98434.25;10217902;29;20051;-77
2023/01/16 02:41:11;;;;;;;1.55;0.80;;;;;;;3.84;71.57;98414.00;10224165;29;20050;-78
2023/01/16 02:46:25;;;;;;;3.85;0.77;;;;;;;3.80;71.05;98408.13;10219771;29;20040;-80
2023/01/16 02:51:37;;;;;;;3.22;0.60;;;;;;;3.63;71.02;98398.91;10209339;29;20518;-78
2023/01/16 02:56:45;;;;;;;1.02;0.35;;;;;;;3.61;71.04;98397.38;10214785;29;20032;-77
2023/01/16 03:01:50;;;;;;;1.80;0.40;;;;;;;3.36;72.58;98377.34;10212964;29;20420;-78
2023/01/16 03:07:02;;;;;;;1.38;1.10;;;;;;;3.44;71.58;98366.94;10214335;29;20052;-78
2023/01/16 03:12:22;;;;;;;2.30;0.47;;;;;;;3.36;71.91;98353.47;10211479;29;20035;-79
2023/01/16 03:17:39;;;;;;;2.25;0.60;;;;;;;3.65;71.18;98338.56;10212787;29;20044;-79
2023/01/16 03:22:51;;;;;;;1.25;0.50;;;;;;;3.40;71.64;98341.59;10212390;29;20035;-78
2023/01/16 03:28:03;;;;;;;4.07;0.63;;;;;;;3.36;71.98;98330.41;10211093;29;20046;-78
2023/01/16 03:33:11;;;;;;;3.30;0.40;;;;;;;3.43;72.02;98323.63;10215135;29;20051;-78
2023/01/16 03:38:18;;;;;;;4.35;0.55;;;;;;;3.31;72.92;98318.50;10201142;29;20052;-78
2023/01/16 03:43:25;;;;;;;5.38;0.77;;;;;;;3.19;73.64;98309.75;10210564;29;20063;-78
2023/01/16 03:48:36;;;;;;;4.63;2.25;;;;;;;3.14;73.84;98306.63;10221023;29;20051;-77
2023/01/16 03:53:45;;;;;;;2.40;0.47;;;;;;;3.19;73.69;98301.81;10209754;29;20048;-76
2023/01/16 03:58:49;;;;;;;3.75;1.25;;;;;;;3.27;73.31;98283.44;10208538;29;20063;-78
2023/01/16 04:04:00;;;;;;;2.45;0.82;;;;;;;3.15;73.44;98284.44;10207998;29;20044;-78
2023/01/16 04:09:10;;;;;;;2.47;0.60;;;;;;;3.17;73.26;98274.53;10208327;29;20047;-78
2023/01/16 04:14:15;;;;;;;2.35;0.52;;;;;;;3.22;72.88;98267.88;10218832;29;20323;-77
2023/01/16 04:19:20;;;;;;;3.72;0.57;;;;;;;3.10;73.36;98268.06;10229334;29;20107;-77
2023/01/16 04:24:24;;;;;;;2.92;0.80;;;;;;;3.23;72.58;98261.59;10214596;29;20460;-77
2023/01/16 04:29:27;;;;;;;2.83;0.70;;;;;;;3.31;72.48;98253.00;10212514;29;20047;-78
2023/01/16 04:34:30;;;;;;;2.47;0.60;;;;;;;3.34;71.74;98247.41;10205052;29;20071;-77
2023/01/16 04:39:34;;;;;;;3.70;0.73;;;;;;;3.40;71.48;98228.34;10204227;29;20046;-78
2023/01/16 04:44:37;;;;;;;8.93;1.45;;;;;;;3.53;71.11;98229.94;10209237;29;20096;-78
2023/01/16 04:49:40;;;;;;;1.17;0.40;;;;;;;3.48;71.10;98227.66;10206338;29;20048;-77
2023/01/16 04:54:44;;;;;;;1.73;0.40;;;;;;;3.54;71.01;98197.97;10209121;29;20039;-78
2023/01/16 04:59:47;;;;;;;2.00;0.63;;;;;;;3.70;70.63;98193.00;10208829;29;20050;-78
2023/01/16 05:04:50;;;;;;;2.05;0.50;;;;;;;3.71;70.54;98176.09;10212003;29;20044;-77
2023/01/16 05:09:54;;;;;;;3.10;0.65;;;;;;;3.80;70.64;98174.44;10201986;29;20431;-78
2023/01/16 05:14:57;;;;;;;3.97;1.10;;;;;;;3.84;70.52;98164.34;10207405;29;20046;-78
2023/01/16 05:20:00;;;;;;;2.85;1.00;;;;;;;3.71;70.97;98149.53;10204216;29;20040;-78
2023/01/16 05:25:05;;;;;;;3.97;0.75;;;;;;;3.57;71.10;98144.59;10204827;29;20048;-78
2023/01/16 05:30:09;;;;;;;3.28;0.52;;;;;;;3.44;71.71;98138.69;10212894;29;20043;-78
2023/01/16 05:35:12;;;;;;;3.10;0.65;;;;;;;3.26;72.41;98112.78;10206843;29;20127;-77
2023/01/16 05:40:17;;;;;;;2.50;0.75;;;;;;;3.23;72.67;98114.84;10202765;29;20047;-77
2023/01/16 05:45:20;;;;;;;2.00;0.60;;;;;;;3.01;73.21;98110.53;10205868;29;20110;-78
2023/01/16 05:50:23;;;;;;;1.98;0.63;;;;;;;3.17;73.19;98099.47;10197210;29;20040;-77
2023/01/16 05:55:27;;;;;;;0.73;0.60;;;;;;;3.19;73.30;98079.78;10193830;29;20040;-77
2023/01/16 06:00:30;;;;;;;1.50;1.00;;;;;;;3.19;73.34;98068.34;10225855;29;20072;-77
2023/01/16 06:05:34;;;;;;;2.20;0.57;;;;;;;3.19;73.47;98063.03;10214890;29;20043;-78
2023/01/16 06:10:38;;;;;;;2.13;0.77;;;;;;;3.23;73.08;98045.84;10210932;29;20040;-79
2023/01/16 06:15:42;;;;;;;3.20;0.55;;;;;;;3.28;73.22;98049.78;10199553;29;20055;-77
2023/01/16 06:20:45;;;;;;;0.93;0.45;;;;;;;3.32;73.18;98057.47;10200608;29;20492;-77
2023/01/16 06:25:51;;;;;;;1.38;0.88;;;;;;;3.41;72.85;98033.63;10206265;29;20089;-77
2023/01/16 06:30:54;;;;;;;2.67;0.90;;;;;;;3.48;71.79;98025.94;10198588;29;20096;-78
2023/01/16 06:35:56;;;;;;;0.45;0.43;;;;;;;3.60;71.53;98008.94;10201723;29;20048;-77
2023/01/16 06:41:01;;;;;;;3.05;0.85;;;;;;;3.46;71.74;98002.22;10202206;29;20127;-77
2023/01/16 06:46:04;;;;;;;2.70;0.35;;;;;;;3.37;71.91;98010.16;10198390;29;20055;-77
2023/01/16 06:51:06;;;;;;;2.05;0.65;;;;;;;3.20;72.12;97993.91;10209467;28;20036;-77
2023/01/16 06:56:11;;;;;;;2.53;0.65;;;;;;;3.20;72.33;97985.94;10268985;28;20047;-77
2023/01/16 07:01:13;;;;;;;5.05;0.70;;;;;;;3.09;72.26;97969.31;10224233;28;20048;-76
2023/01/16 07:06:16;;;;;;;3.92;0.70;;;;;;;3.01;72.57;97964.69;10182916;29;20041;-76
2023/01/16 07:11:21;;;;;;;1.63;0.73;;;;;;;3.22;72.10;97961.94;10191711;29;20056;-77
2023/01/16 07:27:17;;;;;;;1.23;0.75;;;;;;;3.20;72.29;97922.28;10183044;29;20611;-77
2023/01/16 07:32:21;;;;;;;1.25;0.68;;;;;;;3.09;72.89;97919.75;10210073;29;20098;-77
2023/01/16 07:37:24;;;;;;;3.33;1.50;;;;;;;3.15;72.70;97908.59;10190775;29;20067;-77
2023/01/16 07:42:28;;;;;;;0.90;0.80;;;;;;;3.05;72.84;97891.84;10177744;29;20075;-77
2023/01/16 07:47:31;;;;;;;2.78;1.33;;;;;;;3.12;72.89;97870.91;10187059;29;20051;-78
2023/01/16 07:52:34;;;;;;;2.70;1.35;;;;;;;3.11;73.45;97880.69;10203032;29;20048;-76
2023/01/16 07:57:39;;;;;;;3.20;1.58;;;;;;;3.22;73.03;97877.06;10207414;29;20554;-77
2023/01/16 08:02:42;;;;;;;1.33;1.00;;;;;;;3.03;73.29;97859.31;10182518;29;20100;-77
2023/01/16 08:07:46;;;;;;;1.30;1.17;;;;;;;3.22;73.11;97850.53;10185733;29;20417;-77
2023/01/16 08:12:50;;;;;;;2.83;2.08;;;;;;;3.24;73.16;97830.84;10202766;29;20508;-78
2023/01/16 08:17:53;;;;;;;8.27;1.33;;;;;;;3.29;72.86;97817.13;10209315;29;20075;-78
2023/01/16 08:22:57;;;;;;;1.15;1.02;;;;;;;3.52;72.22;97801.75;10183073;29;20515;-77
2023/01/16 08:28:02;;;;;;;4.15;1.38;;;;;;;3.61;71.84;97794.75;10150772;29;21201;-76
2023/01/16 08:33:05;;;;;;;3.10;1.30;;;;;;;3.50;71.48;97775.34;10163309;29;21602;-77
2023/01/16 08:38:07;;;;;;;2.47;0.82;;;;;;;3.92;70.30;97755.53;10165580;29;20119;-76
2023/01/16 08:53:54;;;;;;;2.60;1.10;;;;;;;4.13;68.89;97729.56;10162901;29;20052;-77
2023/01/16 08:58:58;;;;;;;1.85;0.85;;;;;;;3.94;68.85;97705.75;10169673;29;20048;-77
2023/01/16 09:04:01;;;;;;;2.22;1.15;;;;;;;4.09;68.47;97708.78;10170925;29;20780;-77
2023/01/16 09:09:04;;;;;;;4.78;1.67;;;;;;;4.16;68.43;97700.03;10169162;29;20144;-77
2023/01/16 09:14:09;;;;;;;3.10;1.00;;;;;;;4.43;67.55;97685.03;10163173;29;20057;-77
2023/01/16 09:19:27;;;;;;;1.58;1.23;;;;;;;4.18;67.52;97686.63;10147591;29;20082;-76
2023/01/16 09:24:30;;;;;;;4.35;1.35;;;;;;;4.43;66.87;97663.78;10158265;29;20056;-77
2023/01/16 09:29:34;;;;;;;2.30;1.00;;;;;;;4.26;66.98;97657.47;10152909;29;20086;-77
2023/01/16 09:34:38;;;;;;;4.32;1.00;;;;;;;4.56;66.71;97642.16;10168048;29;20052;-77
2023/01/16 09:39:41;;;;;;;3.45;1.05;;;;;;;4.43;66.93;97621.25;10166723;29;20050;-77
2023/01/16 09:44:49;;;;;;;5.78;1.20;;;;;;;4.45;65.71;97608.66;10171826;29;20074;-77
2023/01/16 09:49:56;;;;;;;2.78;0.93;;;;;;;4.50;65.84;97618.81;10172293;29;20055;-77
2023/01/16 10:00:31;;;;;;;5.82;1.20;;;;;;;4.70;65.25;97596.38;10147054;29;20088;-77
2023/01/16 10:05:41;;;;;;;4.78;1.08;;;;;;;4.41;65.55;97575.38;10163840;29;20118;-77
2023/01/16 10:10:49;;;;;;;5.18;0.95;;;;;;;4.52;65.98;97575.13;10152925;29;20044;-77
2023/01/16 10:16:03;;;;;;;3.28;1.00;;;;;;;4.56;67.45;97552.59;10146243;29;20174;-76
2023/01/16 10:21:19;;;;;;;4.22;1.23;;;;;;;4.15;70.32;97531.00;10162243;29;20189;-76
2023/01/16 10:26:28;;;;;;;2.83;0.93;;;;;;;3.84;73.29;97516.44;10149368;29;20090;-76
2023/01/16 10:31:39;;;;;;;3.22;1.30;;;;;;;4.00;73.63;97483.88;10176258;29;21307;-77
2023/01/16 10:36:48;;;;;;;1.40;0.52;;;;;;;3.88;72.66;97478.00;10174583;29;20115;-76
2023/01/16 10:52:43;;;;;;;6.30;0.93;;;;;;;4.31;70.17;97439.97;10173775;29;20056;-77
2023/01/16 10:57:49;;;;;;;6.00;0.80;;;;;;;4.41;69.32;97426.56;10168470;29;20785;-77
2023/01/16 11:02:53;;;;;;;5.90;0.70;;;;;;;4.44;68.32;97420.09;10176463;29;20079;-78
2023/01/16 11:08:02;;;;;;;3.10;1.48;;;;;;;4.61;67.56;97403.25;10183333;29;20080;-78
2023/01/16 11:18:32;;;;;;;2.35;0.82;;;;;;;4.73;66.54;97361.25;10180458;29;20044;-78
2023/01/16 11:23:39;;;;;;;3.85;0.90;;;;;;;5.26;65.53;97358.25;10196651;29;20048;-78
2023/01/16 11:28:47;;;;;;;3.75;0.60;;;;;;;5.22;64.81;97346.28;10203719;29;20430;-78
2023/01/16 11:33:57;;;;;;;5.13;0.57;;;;;;;4.78;65.08;97341.16;10193090;29;20044;-77
2023/01/16 11:39:00;;;;;;;4.45;0.65;;;;;;;5.10;64.73;97321.00;10203389;29;20048;-77
2023/01/16 11:49:46;;;;;;;2.05;0.60;;;;;;;5.04;63.69;97301.19;10205335;29;20080;-77
2023/01/16 11:54:48;;;;;;;1.35;0.50;;;;;;;4.86;64.46;97299.66;10183441;29;20496;-78
2023/01/16 12:00:10;;;;;;;1.00;0.55;;;;;;;4.86;64.54;97283.69;10189754;29;20044;-78
2023/01/16 12:10:58;;;;;;;1.70;0.50;;;;;;;4.71;65.08;97248.91;10197355;29;20047;-77
2023/01/16 12:16:13;;;;;;;0.95;0.20;;;;;;;4.51;66.09;97237.75;10195138;29;20054;-78
2023/01/16 12:21:30;;;;;;;2.72;0.50;;;;;;;4.36;67.33;97243.69;10196189;29;20075;-78
2023/01/16 12:26:42;;;;;;;3.35;0.40;;;;;;;4.34;68.67;97234.22;10187464;29;20048;-77
2023/01/16 12:31:54;;;;;;;0.50;0.30;;;;;;;4.06;69.63;97225.63;10197601;29;20099;-77
2023/01/16 12:37:13;;;;;;;0.90;0.43;;;;;;;3.98;71.67;97222.94;10177568;29;20303;-77
2023/01/16 12:48:04;;;;;;;2.20;0.70;;;;;;;4.04;71.42;97209.06;10181657;29;20043;-77
2023/01/16 12:53:31;;;;;;;2.20;0.40;;;;;;;3.92;70.43;97188.09;10197655;29;20056;-76
2023/01/16 12:58:38;;;;;;;3.65;0.50;;;;;;;4.25;70.00;97152.81;10182448;29;20408;-77
2023/01/16 13:03:46;;;;;;;1.92;1.10;;;;;;;4.22;70.26;97161.13;10175687;29;20096;-77
2023/01/16 13:09:00;;;;;;;1.17;0.43;;;;;;;4.27;69.05;97143.69;10198683;29;20048;-78
2023/01/16 13:14:07;;;;;;;2.40;1.00;;;;;;;4.21;69.08;97131.06;10177328;29;20051;-77
2023/01/16 13:19:14;;;;;;;1.60;0.65;;;;;;;4.29;68.12;97131.06;10204871;29;20050;-77
2023/01/16 13:24:23;;;;;;;4.30;1.65;;;;;;;4.33;68.36;97102.34;10211672;29;20040;-77
2023/01/16 13:29:31;;;;;;;0.57;0.57;;;;;;;4.18;67.67;97112.78;10199203;29;20095;-77
2023/01/16 13:34:40;;;;;;;1.48;0.70;;;;;;;4.55;67.16;97096.41;10192544;29;20079;-77
2023/01/16 13:40:16;;;;;;;0.40;0.30;;;;;;;5.12;65.49;97084.06;10180535;29;20500;-77
2023/01/16 13:45:49;;;;;;;1.77;0.50;;;;;;;4.98;64.93;97069.59;10182940;29;20139;-77
2023/01/16 13:50:59;;;;;;;2.60;0.50;;;;;;;4.96;65.60;97059.09;10201879;29;20047;-77
2023/01/16 13:56:08;;;;;;;2.47;0.85;;;;;;;5.32;64.98;97055.22;10202415;29;20406;-77
2023/01/16 14:01:34;;;;;;;0.60;0.50;;;;;;;6.67;59.70;97059.22;10208096;29;20047;-78
2023/01/16 14:06:44;;;;;;;0.70;0.70;;;;;;;7.47;57.70;97044.38;10210341;29;20043;-77
2023/01/16 14:12:02;;;;;;;1.83;0.70;;;;;;;7.26;58.18;97039.78;10194474;29;20705;-77
2023/01/16 14:17:05;;;;;;;2.42;0.50;;;;;;;6.59;59.74;97022.78;10172642;29;20106;-77
2023/01/16 14:27:43;;;;;;;1.00;0.70;;;;;;;5.14;63.98;97024.34;10136652;28;20274;-76
2023/01/16 14:32:48;;;;;;;1.83;0.60;;;;;;;4.72;64.38;97003.34;10155777;28;20052;-76
2023/01/16 14:37:58;;;;;;;1.38;0.85;;;;;;;4.62;65.24;96999.03;10172762;28;20528;-76
2023/01/16 14:59:26;;;;;;;1.48;0.57;;;;;;;4.39;66.92;96975.00;10179791;29;20122;-76
2023/01/16 15:04:38;;;;;;;1.13;0.60;;;;;;;4.01;67.84;96973.84;10156300;29;20060;-78
2023/01/16 15:09:43;;;;;;;0.95;0.70;;;;;;;4.20;67.93;96967.38;10176063;29;20179;-77
2023/01/16 15:14:57;;;;;;;0.95;0.70;;;;;;;4.26;67.96;96939.31;10166980;29;20051;-77
2023/01/16 15:25:40;;;;;;;1.65;0.52;;;;;;;3.90;68.69;96927.22;10148612;29;20412;-77
2023/01/16 15:30:50;;;;;;;2.25;0.50;;;;;;;3.93;68.71;96932.19;10189696;28;20099;-76
2023/01/16 15:35:57;;;;;;;2.50;0.88;;;;;;;3.99;68.46;96908.63;10205358;28;20036;-76
2023/01/16 15:41:02;;;;;;;1.25;0.73;;;;;;;4.01;68.00;96894.19;10203345;29;20078;-77
2023/01/16 15:46:33;;;;;;;1.70;0.90;;;;;;;4.13;67.60;96892.81;10173543;29;20059;-77
2023/01/16 15:51:36;;;;;;;2.75;1.05;;;;;;;4.14;67.92;96897.16;10171729;29;20044;-77
2023/01/16 15:56:44;;;;;;;4.07;0.70;;;;;;;4.11;67.46;96881.56;10161478;29;20060;-76
2023/01/16 16:02:18;;;;;;;2.78;1.23;;;;;;;4.28;67.32;96881.50;10150222;29;20056;-76
2023/01/16 16:07:22;;;;;;;2.15;1.88;;;;;;;4.30;67.09;96877.69;10151156;29;20058;-77
2023/01/16 16:12:25;;;;;;;2.63;2.00;;;;;;;3.97;68.28;96854.84;10154208;29;20103;-77
2023/01/16 16:22:52;;;;;;;2.25;1.38;;;;;;;3.98;70.69;96852.03;10138302;29;20047;-76
2023/01/16 16:27:55;;;;;;;3.38;1.33;;;;;;;4.12;69.83;96827.44;10152989;29;20055;-77
2023/01/16 16:33:00;;;;;;;2.55;1.67;;;;;;;4.12;69.09;96806.19;10167325;29;20079;-77
2023/01/16 16:38:03;;;;;;;2.70;1.90;;;;;;;4.18;68.48;96810.81;10158979;29;20534;-76
2023/01/16 16:43:06;;;;;;;1.83;1.15;;;;;;;4.05;67.90;96809.69;10171890;29;20055;-77
2023/01/16 16:48:30;;;;;;;0.68;0.60;;;;;;;4.28;67.40;96797.34;10142807;29;20043;-77
2023/01/16 16:53:34;;;;;;;1.92;1.13;;;;;;;4.22;67.61;96786.56;10152127;29;20044;-77
2023/01/16 16:58:42;;;;;;;0.68;0.57;;;;;;;4.12;66.92;96781.47;10157845;29;20044;-77
2023/01/16 17:03:49;;;;;;;1.52;1.00;;;;;;;4.19;66.76;96774.44;10152236;29;20048;-77
2023/01/16 17:08:52;;;;;;;1.90;0.63;;;;;;;3.98;67.12;96767.06;10171387;29;20047;-77
2023/01/16 17:13:54;;;;;;;0.85;0.75;;;;;;;4.12;66.90;96773.50;10173388;29;20095;-77
2023/01/16 17:19:01;;;;;;;0.63;0.60;;;;;;;4.28;66.21;96767.28;10158582;29;20052;-76
2023/01/16 17:24:05;;;;;;;0.93;0.60;;;;;;;4.40;65.91;96757.94;10165969;29;20518;-76
2023/01/16 17:29:08;;;;;;;2.05;0.80;;;;;;;4.37;65.57;96756.44;10171544;29;20055;-76
2023/01/16 17:34:14;;;;;;;1.88;0.90;;;;;;;4.42;65.87;96737.34;10170164;29;20127;-76
2023/01/16 17:39:17;;;;;;;2.67;0.82;;;;;;;4.40;65.73;96718.91;10162581;29;20495;-76
2023/01/16 18:00:25;;;;;;;2.20;0.90;;;;;;;4.36;66.04;96706.13;10159106;29;20503;-77
2023/01/16 18:05:31;;;;;;;2.20;1.02;;;;;;;4.35;66.48;96702.66;10152632;29;20044;-77
2023/01/16 18:10:35;;;;;;;1.88;0.80;;;;;;;4.32;66.79;96688.91;10158669;29;20060;-77
2023/01/16 18:26:19;;;;;;;1.02;0.93;;;;;;;3.96;70.64;96670.81;10146518;29;20089;-76
2023/01/16 18:31:22;;;;;;;0.60;0.60;;;;;;;4.00;70.97;96669.47;10145516;29;20051;-77
2023/01/16 18:36:27;;;;;;;1.00;0.73;;;;;;;4.01;71.58;96675.63;10151454;29;20712;-77
2023/01/16 19:02:57;;;;;;;0.57;0.55;;;;;;;4.20;69.10;96638.00;10162176;29;20186;-77
2023/01/16 19:08:03;;;;;;;1.27;0.63;;;;;;;4.13;68.73;96642.34;10165134;29;20051;-77
2023/01/16 19:13:07;;;;;;;1.73;0.77;;;;;;;4.28;68.43;96635.31;10148883;29;20048;-76
2023/01/16 19:18:09;;;;;;;0.70;0.70;;;;;;;4.35;67.95;96638.06;10179448;29;20048;-77
2023/01/16 19:23:14;;;;;;;1.55;0.80;;;;;;;4.33;67.83;96626.78;10147875;29;20064;-77
2023/01/16 19:28:17;;;;;;;1.15;0.93;;;;;;;4.42;67.72;96631.06;10165812;29;20060;-77
2023/01/16 19:33:20;;;;;;;0.57;0.57;;;;;;;4.44;67.38;96617.56;10180049;29;20142;-77
2023/01/16 19:38:24;;;;;;;0.50;0.50;;;;;;;4.37;67.52;96615.63;10165584;29;20063;-74
2023/01/16 19:48:50;;;;;;;1.48;1.08;;;;;;;4.34;67.82;96616.00;10131597;29;20068;-76
2023/01/16 19:53:54;;;;;;;2.38;1.10;;;;;;;4.40;67.66;96612.63;10188792;29;20044;-77
2023/01/16 19:58:57;;;;;;;0.73;0.70;;;;;;;4.20;68.40;96614.09;10206555;28;20062;-77
2023/01/16 20:04:00;;;;;;;0.73;0.65;;;;;;;4.24;68.37;96604.75;10159216;28;20078;-77
2023/01/16 20:09:04;;;;;;;0.95;0.90;;;;;;;4.33;68.07;96605.53;10141541;29;20056;-77
2023/01/16 20:14:07;;;;;;;0.80;0.70;;;;;;;4.20;68.31;96610.59;10162246;29;20403;-77
2023/01/16 20:19:11;;;;;;;1.63;1.52;;;;;;;4.21;68.66;96599.00;10152297;29;20796;-76
2023/01/16 20:24:17;;;;;;;1.00;0.90;;;;;;;4.13;69.86;96594.53;10167078;29;20048;-77
2023/01/16 20:29:22;;;;;;;0.73;0.73;;;;;;;3.78;71.73;96604.69;10166598;29;20056;-78
2023/01/16 20:34:25;;;;;;;0.70;0.70;;;;;;;3.76;72.47;96612.03;10172558;29;20696;-76
2023/01/16 20:39:30;;;;;;;1.27;0.60;;;;;;;3.43;73.62;96606.03;10144749;29;20055;-77
2023/01/16 20:49:53;;;;;;;1.75;0.82;;;;;;;3.49;74.57;96606.16;10161407;29;20058;-77
2023/01/16 20:54:58;;;;;;;0.93;0.80;;;;;;;3.58;74.51;96611.44;10167430;29;20064;-76
2023/01/16 21:00:00;;;;;;;1.42;0.98;;;;;;;3.48;74.82;96608.97;10136341;29;20537;-77
2023/01/16 21:05:04;;;;;;;1.58;1.45;;;;;;;3.50;74.85;96625.56;10141761;29;20062;-76
2023/01/16 21:10:09;;;;;;;1.13;1.02;;;;;;;3.37;75.29;96625.25;10168501;29;20044;-77
2023/01/16 21:15:12;;;;;;;2.67;1.20;;;;;;;3.30;75.87;96625.13;10169007;29;20056;-76
2023/01/16 21:25:36;;;;;;;2.28;1.50;;;;;;;3.43;76.64;96640.50;10152967;29;20054;-76
2023/01/16 21:30:39;;;;;;;1.63;1.52;;;;;;;3.22;77.55;96630.44;10167355;29;20051;-77
2023/01/16 21:35:42;;;;;;;2.42;1.90;;;;;;;3.18;78.12;96623.81;10162375;29;20201;-76
2023/01/16 21:40:48;;;;;;;3.22;2.92;;;;;;;3.12;78.91;96635.91;10177964;29;20056;-76
2023/01/16 21:51:11;;;;;;;3.20;3.00;;;;;;;3.31;78.42;96639.22;10169557;29;20050;-77
2023/01/16 21:56:16;;;;;;;4.68;4.28;;;;;;;3.21;79.33;96647.34;10166612;29;20067;-76
2023/01/16 22:01:19;;;;;;;4.97;4.47;;;;;;;3.18;79.40;96645.88;10163008;29;20056;-76
2023/01/16 22:06:22;;;;;;;6.75;5.72;;;;;;;3.33;79.34;96643.34;10169222;29;20125;-76
2023/01/16 22:22:07;;;;;;;9.43;6.60;;;;;;;3.27;81.25;96651.97;10157000;29;20058;-77
2023/01/16 22:27:11;;;;;;;7.55;6.63;;;;;;;3.41;80.79;96656.59;10203381;29;20048;-77
2023/01/16 22:32:14;;;;;;;9.63;7.10;;;;;;;3.43;80.88;96662.56;10232771;23;20130;-75
2023/01/16 22:42:49;;;;;;;9.48;7.03;;;;;;;3.00;82.71;96661.13;10350568;23;19962;-76
2023/01/16 22:47:53;;;;;;;12.27;8.40;;;;;;;3.19;82.52;96662.59;10206371;29;20513;-76
2023/01/16 22:52:55;;;;;;;13.63;9.13;;;;;;;3.33;80.67;96664.56;10229563;23;20106;-78
2023/01/16 22:57:59;;;;;;;15.15;11.30;;;;;;;3.56;80.87;96669.13;10208603;29;20349;-77
2023/01/16 23:03:02;;;;;;;12.88;8.27;;;;;;;3.42;80.90;96674.16;10212604;29;20070;-76
2023/01/16 23:08:05;;;;;;;14.98;11.82;;;;;;;3.18;82.76;96677.69;10211893;29;20040;-77
2023/01/16 23:13:09;;;;;;;16.60;11.27;;;;;;;2.88;86.10;96678.34;10209035;29;20503;-77
2023/01/16 23:18:12;;;;;;;14.05;10.52;;;;;;;2.88;86.63;96686.31;10200596;29;20062;-78
2023/01/16 23:23:15;;;;;;;11.27;7.32;;;;;;;2.49;89.84;96690.38;10217198;29;20124;-78
2023/01/16 23:28:19;;;;;;;14.70;10.35;;;;;;;2.75;90.06;96689.47;10219884;29;20047;-78
2023/01/16 23:33:22;;;;;;;9.82;7.28;;;;;;;2.35;90.32;96696.34;10218739;29;20131;-78
2023/01/16 23:38:24;;;;;;;17.33;11.43;;;;;;;1.93;92.77;96723.69;10204233;29;20045;-78
2023/01/16 23:48:49;;;;;;;15.80;10.43;;;;;;;1.88;92.64;96720.66;10230603;29;20135;-80
2023/01/16 23:53:52;;;;;;;13.70;9.95;;;;;;;1.54;92.66;96720.66;10223622;29;20051;-80
2023/01/16 23:58:58;;;;;;;13.57;9.77;;;;;;;1.54;91.02;96728.59;10216071;29;20048;-80
